Time;durP1;ratioP1;P1;durP2;ratioP2;P2;SDS_P1;SDS_P2;PMS_P1;PMS_P2;Temp;Humidity;BMP_temperature;BMP_pressure;BME280_temperature;BME280_humidity;BME280_pressure;Samples;Min_cycle;Max_cycle;Signal;HPM_P1;HPM_P2
2022/02/14 00:00:23;;;;;;;3.25;1.73;;;0.80;71.50;;;;;;5030271;28;20026;-82
2022/02/14 00:02:49;;;;;;;4.68;2.20;;;0.80;71.50;;;;;;5045551;28;20048;-81
2022/02/14 00:05:16;;;;;;;4.13;1.80;;;0.80;71.50;;;;;;5047558;28;20413;-81
2022/02/14 00:07:41;;;;;;;3.78;1.95;;;0.70;71.50;;;;;;5031865;28;20458;-81
2022/02/14 00:10:08;;;;;;;3.22;1.65;;;0.70;71.50;;;;;;5029655;28;20029;-81
2022/02/14 00:12:34;;;;;;;3.50;1.73;;;0.70;71.60;;;;;;5032258;28;20030;-80
2022/02/14 00:15:01;;;;;;;4.72;1.85;;;0.70;71.50;;;;;;5011975;28;20279;-80
2022/02/14 00:17:27;;;;;;;3.42;2.08;;;0.60;71.40;;;;;;5034002;28;20060;-81
2022/02/14 00:19:53;;;;;;;3.70;1.85;;;0.60;71.30;;;;;;5031770;28;20095;-81
2022/02/14 00:22:21;;;;;;;4.60;1.67;;;0.60;71.20;;;;;;5029644;28;20042;-81
2022/02/14 00:24:57;;;;;;;3.17;1.67;;;0.60;71.10;;;;;;5028848;28;20029;-81
2022/02/14 00:27:23;;;;;;;2.65;1.63;;;0.50;70.90;;;;;;5029158;28;20025;-81
2022/02/14 00:29:49;;;;;;;2.72;1.42;;;0.50;70.90;;;;;;5034615;28;20025;-81
2022/02/14 00:32:15;;;;;;;4.80;1.40;;;0.60;70.90;;;;;;5023522;28;20034;-81
2022/02/14 00:34:42;;;;;;;2.80;1.58;;;0.60;71.00;;;;;;5029672;28;20079;-81
2022/02/14 00:37:08;;;;;;;3.00;1.45;;;0.60;70.90;;;;;;5028858;28;20081;-80
2022/02/14 00:39:34;;;;;;;3.40;1.65;;;0.60;70.90;;;;;;5027581;28;20048;-80
2022/02/14 00:42:00;;;;;;;2.53;1.48;;;0.60;70.80;;;;;;5027980;28;20040;-82
2022/02/14 00:44:25;;;;;;;3.92;1.50;;;0.60;70.60;;;;;;5028238;28;20447;-81
2022/02/14 00:46:51;;;;;;;2.58;1.27;;;0.60;70.40;;;;;;5026425;28;20037;-82
2022/02/14 00:49:17;;;;;;;1.80;1.05;;;0.60;70.10;;;;;;5026111;28;20076;-81
2022/02/14 00:51:42;;;;;;;3.60;1.20;;;0.60;69.60;;;;;;5026972;28;20026;-81
2022/02/14 00:54:09;;;;;;;2.35;1.48;;;0.70;69.20;;;;;;5028621;28;20049;-82
2022/02/14 00:56:35;;;;;;;3.60;1.40;;;0.70;68.70;;;;;;5027453;28;20022;-81
2022/02/14 00:59:01;;;;;;;2.17;1.27;;;0.70;68.50;;;;;;5025633;28;20049;-82
2022/02/14 01:01:29;;;;;;;2.90;1.85;;;0.70;68.40;;;;;;5028445;28;20446;-82
2022/02/14 01:03:55;;;;;;;2.38;1.20;;;0.60;68.20;;;;;;5034663;28;20104;-82
2022/02/14 01:06:22;;;;;;;2.33;1.17;;;0.70;68.00;;;;;;5024939;28;20121;-81
2022/02/14 01:08:47;;;;;;;2.47;1.40;;;0.60;67.90;;;;;;5027076;28;20269;-81
2022/02/14 01:11:13;;;;;;;2.38;1.27;;;0.60;68.10;;;;;;5025622;28;20034;-82
2022/02/14 01:13:40;;;;;;;2.30;1.42;;;0.60;68.20;;;;;;5027153;28;20022;-81
2022/02/14 01:16:06;;;;;;;1.73;1.10;;;0.50;67.90;;;;;;5027659;28;20041;-81
2022/02/14 01:18:32;;;;;;;1.02;0.85;;;0.60;67.70;;;;;;5031947;28;20018;-81
2022/02/14 01:20:57;;;;;;;3.88;0.90;;;0.60;67.40;;;;;;5033496;28;20030;-81
2022/02/14 01:23:23;;;;;;;3.97;1.13;;;0.60;66.90;;;;;;5032708;28;20163;-82
2022/02/14 01:25:49;;;;;;;1.33;0.82;;;0.60;66.10;;;;;;5028839;28;20030;-81
2022/02/14 01:28:15;;;;;;;1.63;0.93;;;0.60;66.00;;;;;;5008674;28;20116;-81
2022/02/14 01:30:41;;;;;;;1.50;0.95;;;0.60;65.80;;;;;;5033578;28;20034;-81
2022/02/14 01:33:06;;;;;;;0.82;0.82;;;0.60;65.30;;;;;;5031341;28;20029;-81
2022/02/14 01:35:32;;;;;;;1.65;0.95;;;0.60;64.90;;;;;;5016449;28;20026;-81
2022/02/14 01:37:58;;;;;;;2.60;0.85;;;0.60;64.70;;;;;;5017198;28;20052;-81
2022/02/14 01:40:24;;;;;;;0.73;0.73;;;0.50;64.60;;;;;;5017321;28;20410;-81
2022/02/14 01:42:49;;;;;;;4.90;2.75;;;0.60;64.50;;;;;;5018131;28;20095;-81
2022/02/14 01:45:15;;;;;;;1.08;0.70;;;0.50;64.30;;;;;;5017465;28;20029;-80
2022/02/14 01:47:41;;;;;;;1.10;0.90;;;0.60;64.30;;;;;;5021732;28;20022;-81
2022/02/14 01:50:09;;;;;;;2.10;0.90;;;0.60;64.10;;;;;;5022834;28;20026;-81
2022/02/14 01:52:35;;;;;;;1.08;0.90;;;0.60;63.90;;;;;;5005987;28;20056;-81
2022/02/14 01:55:04;;;;;;;0.80;0.73;;;0.60;63.70;;;;;;5021885;28;20030;-81
2022/02/14 01:57:30;;;;;;;1.80;0.77;;;0.60;63.40;;;;;;5012130;28;20110;-81
2022/02/14 01:59:58;;;;;;;1.13;0.70;;;0.60;63.10;;;;;;5014193;28;20025;-81
2022/02/14 02:02:24;;;;;;;0.70;0.70;;;0.70;63.00;;;;;;5029583;28;20084;-80
2022/02/14 02:04:50;;;;;;;2.25;0.77;;;0.60;62.80;;;;;;5043012;28;20026;-82
2022/02/14 02:07:16;;;;;;;1.48;0.73;;;0.60;62.80;;;;;;5041730;28;20064;-81
2022/02/14 02:09:43;;;;;;;1.27;0.70;;;0.60;62.90;;;;;;5045689;28;20032;-81
2022/02/14 02:12:23;;;;;;;1.33;0.63;;;0.60;62.90;;;;;;5028604;28;20029;-81
2022/02/14 02:15:01;;;;;;;2.00;0.77;;;0.60;63.10;;;;;;5040899;28;20018;-81
2022/02/14 02:17:35;;;;;;;1.25;0.65;;;0.60;63.30;;;;;;5027345;28;20036;-81
2022/02/14 02:20:07;;;;;;;1.40;0.60;;;0.60;63.20;;;;;;5005499;28;20025;-82
2022/02/14 02:22:33;;;;;;;2.65;1.00;;;0.60;62.90;;;;;;5048041;23;20049;-81
2022/02/14 02:24:59;;;;;;;1.35;0.60;;;0.60;62.60;;;;;;5041245;28;20022;-82
2022/02/14 02:27:27;;;;;;;0.95;0.63;;;0.60;62.30;;;;;;5043073;28;20025;-83
2022/02/14 02:29:58;;;;;;;2.45;1.00;;;0.70;62.20;;;;;;5046289;28;20047;-84
2022/02/14 02:32:26;;;;;;;1.63;0.57;;;0.70;61.80;;;;;;5020321;28;20061;-81
2022/02/14 02:34:52;;;;;;;3.00;0.85;;;0.70;61.50;;;;;;5008713;28;20049;-81
2022/02/14 02:37:18;;;;;;;0.73;0.50;;;0.70;61.10;;;;;;5008179;28;20026;-83
2022/02/14 02:39:44;;;;;;;1.98;0.77;;;0.70;60.90;;;;;;5027732;28;20022;-82
2022/02/14 02:42:12;;;;;;;0.98;0.75;;;0.70;60.60;;;;;;5028488;28;20034;-81
2022/02/14 02:44:39;;;;;;;2.63;0.80;;;0.80;60.20;;;;;;5026543;28;20022;-82
2022/02/14 02:47:06;;;;;;;1.50;0.70;;;0.80;59.90;;;;;;5028907;28;20018;-80
2022/02/14 02:49:33;;;;;;;2.33;0.50;;;0.80;59.80;;;;;;5022859;28;20030;-82
2022/02/14 02:52:00;;;;;;;2.40;0.70;;;0.80;60.60;;;;;;5040068;28;20173;-81
2022/02/14 02:54:26;;;;;;;0.80;0.60;;;0.80;59.80;;;;;;5033877;28;20096;-85
2022/02/14 02:56:54;;;;;;;0.65;0.52;;;0.80;59.50;;;;;;5010747;28;20114;-83
2022/02/14 02:59:21;;;;;;;1.08;0.52;;;0.90;59.30;;;;;;5007600;28;20032;-84
2022/02/14 03:01:47;;;;;;;2.03;0.60;;;0.90;59.00;;;;;;5025233;28;20030;-83
2022/02/14 03:04:14;;;;;;;0.65;0.60;;;0.90;58.70;;;;;;5025996;28;20030;-83
2022/02/14 03:06:40;;;;;;;0.75;0.40;;;1.00;58.50;;;;;;5010185;28;20018;-82
2022/02/14 03:09:07;;;;;;;0.40;0.40;;;0.90;58.30;;;;;;5025939;28;20022;-82
2022/02/14 03:11:35;;;;;;;1.02;0.60;;;0.90;58.20;;;;;;5026298;28;20026;-81
2022/02/14 03:14:02;;;;;;;2.05;0.50;;;0.90;58.00;;;;;;5007874;28;20061;-82
2022/02/14 03:16:28;;;;;;;0.65;0.50;;;0.90;57.90;;;;;;5008298;28;20030;-83
2022/02/14 03:18:54;;;;;;;0.43;0.38;;;0.90;58.00;;;;;;5027231;28;20014;-82
2022/02/14 03:21:20;;;;;;;1.33;0.63;;;0.90;57.90;;;;;;5008017;28;20098;-83
2022/02/14 03:23:50;;;;;;;2.00;0.70;;;0.90;57.80;;;;;;5008239;28;20069;-84
2022/02/14 03:26:17;;;;;;;0.40;0.40;;;0.90;57.50;;;;;;5010501;28;20037;-82
2022/02/14 03:28:48;;;;;;;0.82;0.47;;;1.00;57.40;;;;;;5037713;28;20014;-81
2022/02/14 03:31:15;;;;;;;1.55;0.60;;;1.00;57.20;;;;;;5031375;28;20049;-83
2022/02/14 03:33:41;;;;;;;1.45;0.57;;;1.00;57.10;;;;;;5028616;28;20030;-81
2022/02/14 03:36:07;;;;;;;2.28;0.60;;;1.00;57.10;;;;;;5036935;28;20025;-82
2022/02/14 03:38:34;;;;;;;4.30;0.70;;;1.00;57.10;;;;;;5037626;28;20050;-80
2022/02/14 03:41:00;;;;;;;0.93;0.50;;;1.00;57.10;;;;;;5038630;28;20046;-81
2022/02/14 03:43:25;;;;;;;1.00;0.43;;;1.00;57.00;;;;;;5036269;28;20033;-82
2022/02/14 03:45:52;;;;;;;0.47;0.40;;;0.90;57.00;;;;;;5036348;28;20026;-79
2022/02/14 03:48:17;;;;;;;2.22;0.43;;;1.00;57.10;;;;;;5020163;28;20014;-81
2022/02/14 03:50:43;;;;;;;1.10;0.77;;;1.00;57.10;;;;;;5038058;28;20296;-81
2022/02/14 03:53:09;;;;;;;1.95;0.50;;;1.00;56.90;;;;;;5036516;28;20049;-80
2022/02/14 03:55:35;;;;;;;0.93;0.63;;;1.00;56.60;;;;;;5037423;28;20049;-82
2022/02/14 03:58:01;;;;;;;0.68;0.50;;;1.00;56.60;;;;;;5037970;28;20026;-81
2022/02/14 04:00:27;;;;;;;1.05;0.60;;;1.00;56.40;;;;;;5037600;28;20041;-81
2022/02/14 04:02:53;;;;;;;1.95;0.63;;;1.00;56.20;;;;;;5037088;28;20144;-81
2022/02/14 04:05:20;;;;;;;3.03;0.55;;;1.00;56.00;;;;;;5019956;28;20030;-81
2022/02/14 04:07:46;;;;;;;1.48;0.60;;;1.10;56.00;;;;;;5036543;28;20010;-83
2022/02/14 04:10:14;;;;;;;1.42;0.93;;;1.10;55.90;;;;;;5036858;28;20025;-81
2022/02/14 04:12:41;;;;;;;1.90;0.70;;;1.10;55.90;;;;;;5019053;28;20038;-82
2022/02/14 04:15:07;;;;;;;1.73;0.50;;;1.10;55.90;;;;;;5019018;28;20022;-82
2022/02/14 04:17:34;;;;;;;6.22;0.80;;;1.10;55.80;;;;;;5036128;28;20045;-82
2022/02/14 04:19:59;;;;;;;1.52;0.70;;;1.10;55.70;;;;;;5030385;28;20037;-82
2022/02/14 04:22:26;;;;;;;2.30;0.68;;;1.10;55.80;;;;;;5037335;28;20044;-81
2022/02/14 04:24:52;;;;;;;2.10;0.93;;;1.10;56.00;;;;;;5008463;28;20037;-82
2022/02/14 04:27:18;;;;;;;0.93;0.57;;;1.10;56.20;;;;;;5008619;28;20022;-83
2022/02/14 04:29:44;;;;;;;1.02;0.60;;;1.10;56.30;;;;;;5026359;28;20041;-82
2022/02/14 04:32:10;;;;;;;0.57;0.50;;;1.00;56.40;;;;;;5019826;28;20030;-82
2022/02/14 04:34:36;;;;;;;0.63;0.50;;;1.00;56.70;;;;;;5021439;28;20018;-82
2022/02/14 04:37:03;;;;;;;0.75;0.60;;;1.00;57.00;;;;;;5003419;28;20022;-83
2022/02/14 04:39:29;;;;;;;1.02;0.50;;;1.00;56.90;;;;;;5002839;28;20666;-83
2022/02/14 04:41:55;;;;;;;0.28;0.20;;;1.00;56.80;;;;;;5020573;28;20060;-83
2022/02/14 04:44:20;;;;;;;0.75;0.50;;;1.10;56.60;;;;;;5003138;28;20022;-83
2022/02/14 04:46:48;;;;;;;3.55;0.70;;;1.10;56.50;;;;;;5023981;28;20053;-81
2022/02/14 04:49:14;;;;;;;2.83;0.73;;;1.10;56.30;;;;;;5026678;28;20148;-81
2022/02/14 04:51:40;;;;;;;0.77;0.40;;;1.10;56.00;;;;;;5014833;28;20025;-81
2022/02/14 04:54:06;;;;;;;1.38;0.50;;;1.20;55.80;;;;;;5031023;28;20029;-79
2022/02/14 04:56:32;;;;;;;0.90;0.63;;;1.20;55.60;;;;;;5028690;28;20034;-79
2022/02/14 04:59:01;;;;;;;1.15;0.45;;;1.20;55.50;;;;;;5001547;28;20022;-81
2022/02/14 05:01:27;;;;;;;1.35;0.57;;;1.20;55.40;;;;;;5022081;28;20505;-81
2022/02/14 05:03:53;;;;;;;0.75;0.50;;;1.20;55.40;;;;;;5034063;28;20042;-80
2022/02/14 05:06:18;;;;;;;0.75;0.70;;;1.20;55.30;;;;;;5037188;28;20109;-78
2022/02/14 05:08:44;;;;;;;1.40;0.47;;;1.20;55.20;;;;;;5019358;28;20018;-79
2022/02/14 05:11:10;;;;;;;0.70;0.70;;;1.20;55.30;;;;;;5020108;28;20014;-81
2022/02/14 05:13:40;;;;;;;1.48;0.75;;;1.20;55.30;;;;;;5036866;28;20046;-82
2022/02/14 05:16:07;;;;;;;1.38;0.45;;;1.20;55.20;;;;;;5028130;28;20060;-82
2022/02/14 05:18:32;;;;;;;1.23;0.65;;;1.20;55.10;;;;;;5003897;28;20034;-81
2022/02/14 05:20:58;;;;;;;1.52;0.50;;;1.20;55.20;;;;;;5021579;28;20141;-81
2022/02/14 05:23:24;;;;;;;1.33;0.57;;;1.20;55.30;;;;;;5021635;28;20030;-81
2022/02/14 05:25:50;;;;;;;0.98;0.68;;;1.10;55.40;;;;;;5024260;28;20419;-80
2022/02/14 05:28:15;;;;;;;1.17;0.63;;;1.10;55.50;;;;;;5021352;28;20026;-80
2022/02/14 05:30:41;;;;;;;1.35;0.70;;;1.20;55.70;;;;;;5004650;28;20030;-81
2022/02/14 05:33:07;;;;;;;1.38;0.63;;;1.10;55.70;;;;;;5022077;28;20033;-83
2022/02/14 05:35:33;;;;;;;1.27;0.52;;;1.10;55.80;;;;;;5020989;28;20053;-80
2022/02/14 05:37:59;;;;;;;2.50;0.60;;;1.10;55.80;;;;;;5022550;28;20087;-82
2022/02/14 05:40:26;;;;;;;0.70;0.60;;;1.10;55.80;;;;;;5004121;28;20026;-82
2022/02/14 05:42:52;;;;;;;0.88;0.50;;;1.10;56.00;;;;;;5003917;28;20030;-82
2022/02/14 05:45:18;;;;;;;2.50;0.60;;;1.10;56.00;;;;;;5021930;28;20029;-82
2022/02/14 05:47:43;;;;;;;2.70;0.82;;;1.10;56.00;;;;;;5022947;28;20034;-81
2022/02/14 05:50:10;;;;;;;1.83;0.75;;;1.20;56.30;;;;;;5021683;28;20053;-81
2022/02/14 05:52:36;;;;;;;0.60;0.55;;;1.10;56.30;;;;;;5021929;28;20025;-81
2022/02/14 05:55:03;;;;;;;0.65;0.45;;;1.10;56.40;;;;;;5024659;28;20026;-80
2022/02/14 05:57:29;;;;;;;3.95;0.77;;;1.10;56.60;;;;;;5004408;28;20097;-78
2022/02/14 05:59:55;;;;;;;0.90;0.70;;;1.10;56.80;;;;;;5021235;28;20053;-80
2022/02/14 06:02:20;;;;;;;1.92;0.90;;;1.20;56.90;;;;;;5021264;28;20030;-80
2022/02/14 06:04:46;;;;;;;1.80;0.70;;;1.20;57.00;;;;;;5023516;28;20028;-82
2022/02/14 06:07:12;;;;;;;0.82;0.50;;;1.20;57.00;;;;;;5004524;28;20120;-81
2022/02/14 06:09:37;;;;;;;0.80;0.50;;;1.20;57.10;;;;;;5021859;28;20030;-81
2022/02/14 06:12:03;;;;;;;1.33;0.63;;;1.20;57.30;;;;;;5022336;28;20041;-80
2022/02/14 06:14:31;;;;;;;3.50;0.90;;;1.30;57.30;;;;;;5023068;28;20414;-78
2022/02/14 06:16:57;;;;;;;0.75;0.57;;;1.40;57.30;;;;;;5024607;28;20049;-81
2022/02/14 06:19:23;;;;;;;0.65;0.50;;;1.40;57.30;;;;;;5023709;28;20022;-82
2022/02/14 06:21:48;;;;;;;1.98;0.90;;;1.50;57.20;;;;;;5023287;28;20030;-82
2022/02/14 06:24:15;;;;;;;3.05;0.70;;;1.50;57.20;;;;;;5004813;28;20029;-82
2022/02/14 06:26:41;;;;;;;3.40;0.88;;;1.50;57.00;;;;;;5020206;28;20058;-80
2022/02/14 06:29:07;;;;;;;1.55;0.90;;;1.60;56.90;;;;;;5022482;28;20101;-81
2022/02/14 06:31:33;;;;;;;4.00;0.80;;;1.70;56.70;;;;;;5020148;28;20080;-79
2022/02/14 06:34:00;;;;;;;1.17;0.73;;;1.70;56.50;;;;;;5019911;28;20029;-79
2022/02/14 06:36:27;;;;;;;7.18;0.60;;;1.80;57.00;;;;;;5029822;28;20026;-77
2022/02/14 06:38:54;;;;;;;2.42;0.70;;;2.00;56.20;;;;;;5022155;28;20041;-79
2022/02/14 06:41:21;;;;;;;0.73;0.68;;;2.00;55.90;;;;;;5018098;28;20049;-78
2022/02/14 06:43:47;;;;;;;1.08;0.50;;;2.10;55.70;;;;;;5003178;28;20044;-81
2022/02/14 06:46:13;;;;;;;1.60;0.80;;;2.20;55.40;;;;;;5004956;28;20092;-79
2022/02/14 06:48:39;;;;;;;2.00;0.80;;;2.30;55.00;;;;;;5020037;28;20429;-79
2022/02/14 06:51:05;;;;;;;1.63;0.90;;;2.40;54.80;;;;;;5019409;28;20026;-79
2022/02/14 06:53:30;;;;;;;1.25;0.80;;;2.50;54.40;;;;;;5019019;28;20026;-80
2022/02/14 06:55:56;;;;;;;2.22;0.82;;;2.60;54.20;;;;;;5024449;28;20100;-79
2022/02/14 06:58:23;;;;;;;3.13;0.82;;;2.70;54.20;;;;;;5025081;28;20794;-80
2022/02/14 07:00:48;;;;;;;1.55;0.95;;;2.80;54.70;;;;;;5025343;28;20382;-81
2022/02/14 07:03:14;;;;;;;2.60;1.05;;;2.90;54.10;;;;;;5024324;28;20034;-82
2022/02/14 07:05:43;;;;;;;3.08;0.85;;;3.00;54.00;;;;;;5023489;28;20030;-81
2022/02/14 07:08:09;;;;;;;2.92;1.17;;;3.00;53.90;;;;;;5006569;28;20022;-82
2022/02/14 07:10:35;;;;;;;2.03;0.80;;;3.10;53.70;;;;;;5024768;28;20033;-81
2022/02/14 07:13:01;;;;;;;1.08;0.70;;;3.20;53.50;;;;;;5005469;28;20056;-82
2022/02/14 07:15:27;;;;;;;2.35;1.05;;;3.30;53.30;;;;;;5022087;28;20033;-80
2022/02/14 07:17:53;;;;;;;3.60;1.02;;;3.50;53.10;;;;;;5024569;28;20022;-79
2022/02/14 07:20:20;;;;;;;3.10;0.90;;;3.60;52.80;;;;;;5016223;28;20106;-80
2022/02/14 07:22:46;;;;;;;1.88;0.77;;;3.70;52.50;;;;;;5021673;28;20093;-81
2022/02/14 07:25:12;;;;;;;0.82;0.60;;;3.80;52.30;;;;;;5004298;28;20034;-82
2022/02/14 07:27:39;;;;;;;1.52;0.90;;;3.90;52.10;;;;;;5023072;28;20426;-80
2022/02/14 07:30:14;;;;;;;2.25;0.90;;;4.00;51.90;;;;;;5022576;28;20093;-80
2022/02/14 07:32:41;;;;;;;3.13;1.10;;;4.10;51.70;;;;;;5023311;28;20075;-80
2022/02/14 07:35:07;;;;;;;1.35;0.80;;;4.40;51.50;;;;;;5026330;28;20379;-80
2022/02/14 07:37:33;;;;;;;3.33;1.02;;;4.50;51.10;;;;;;5030972;28;20025;-79
2022/02/14 07:39:59;;;;;;;1.45;0.73;;;4.70;50.80;;;;;;5016964;28;20033;-80
2022/02/14 07:42:27;;;;;;;3.42;0.80;;;4.80;50.40;;;;;;5013265;28;20022;-80
2022/02/14 07:44:53;;;;;;;2.22;0.90;;;4.90;50.20;;;;;;5005651;28;20275;-79
2022/02/14 07:47:19;;;;;;;2.05;1.00;;;4.90;49.90;;;;;;5029561;28;20442;-80
2022/02/14 07:49:44;;;;;;;3.40;1.05;;;5.00;49.70;;;;;;5042600;28;20105;-80
2022/02/14 07:52:10;;;;;;;4.28;1.40;;;5.10;49.70;;;;;;5043470;28;20018;-80
2022/02/14 07:54:37;;;;;;;4.47;1.00;;;5.10;49.60;;;;;;5043663;28;20163;-80
2022/02/14 07:57:03;;;;;;;1.65;0.90;;;5.30;49.60;;;;;;5026651;28;20029;-82
2022/02/14 07:59:29;;;;;;;1.67;1.13;;;5.60;49.10;;;;;;5024422;28;20040;-81
2022/02/14 08:01:55;;;;;;;3.50;0.82;;;5.80;48.50;;;;;;5043222;28;20014;-82
2022/02/14 08:04:21;;;;;;;2.50;0.80;;;5.80;48.40;;;;;;5044243;28;20076;-82
2022/02/14 08:06:47;;;;;;;3.58;1.15;;;5.80;48.40;;;;;;5029844;28;20030;-83
2022/02/14 08:09:19;;;;;;;2.45;0.90;;;5.80;48.40;;;;;;5009679;28;20861;-82
2022/02/14 08:11:45;;;;;;;2.10;1.17;;;5.80;48.40;;;;;;5016912;28;20021;-82
2022/02/14 08:14:11;;;;;;;4.65;1.30;;;5.70;48.40;;;;;;5046339;28;20053;-81
2022/02/14 08:16:37;;;;;;;2.63;1.15;;;5.60;48.60;;;;;;5032422;28;20109;-81
2022/02/14 08:19:03;;;;;;;6.65;1.67;;;5.60;48.70;;;;;;5047413;28;20032;-82
2022/02/14 08:21:29;;;;;;;3.33;1.45;;;5.70;48.90;;;;;;5032898;28;20026;-81
2022/02/14 08:23:55;;;;;;;2.60;0.98;;;5.70;48.70;;;;;;5056065;23;20112;-86
2022/02/14 08:26:22;;;;;;;2.97;1.23;;;5.80;48.80;;;;;;5058705;28;20025;-88
2022/02/14 08:28:48;;;;;;;2.90;1.30;;;5.90;48.80;;;;;;5061944;28;20032;-88
2022/02/14 08:31:14;;;;;;;2.67;1.30;;;5.90;48.60;;;;;;5058732;28;20021;-87
2022/02/14 08:33:39;;;;;;;5.80;1.52;;;5.90;48.50;;;;;;5059828;28;20048;-86
2022/02/14 08:36:06;;;;;;;2.80;1.20;;;5.90;48.50;;;;;;5061272;28;20111;-86
2022/02/14 08:38:35;;;;;;;3.42;1.75;;;5.90;48.40;;;;;;5060710;28;20028;-86
2022/02/14 08:41:02;;;;;;;1.75;1.20;;;6.00;48.40;;;;;;5059344;28;20021;-86
2022/02/14 08:43:28;;;;;;;6.28;1.40;;;6.30;48.30;;;;;;5062564;28;20024;-87
2022/02/14 08:45:53;;;;;;;1.38;0.75;;;6.70;48.00;;;;;;5061377;28;20369;-86
2022/02/14 08:48:19;;;;;;;3.90;1.23;;;7.10;47.60;;;;;;5058273;28;20029;-85
2022/02/14 08:50:45;;;;;;;2.95;1.30;;;7.40;47.10;;;;;;5058671;28;20025;-85
2022/02/14 08:53:11;;;;;;;3.55;1.58;;;7.60;46.50;;;;;;5055820;28;20087;-85
2022/02/14 08:55:37;;;;;;;3.80;1.25;;;7.60;45.90;;;;;;5059546;28;20009;-88
2022/02/14 08:58:03;;;;;;;2.97;1.15;;;7.60;45.70;;;;;;5058552;28;20028;-85
2022/02/14 09:00:30;;;;;;;3.70;1.40;;;7.80;46.10;;;;;;5060755;28;20021;-86
2022/02/14 09:02:58;;;;;;;4.53;1.15;;;8.30;45.70;;;;;;5057352;28;20060;-87
2022/02/14 09:05:24;;;;;;;3.05;1.20;;;8.60;45.10;;;;;;5054529;28;20025;-87
2022/02/14 09:07:50;;;;;;;3.53;1.58;;;8.70;44.40;;;;;;5064386;28;20090;-86
2022/02/14 09:10:17;;;;;;;2.53;1.63;;;8.70;44.20;;;;;;5067800;28;20028;-87
2022/02/14 09:12:43;;;;;;;4.63;1.50;;;8.60;44.10;;;;;;5068336;28;20024;-85
2022/02/14 09:15:09;;;;;;;2.45;1.45;;;8.70;44.20;;;;;;5071534;28;20020;-85
2022/02/14 09:17:35;;;;;;;2.10;0.90;;;8.80;43.90;;;;;;5072208;28;20051;-86
2022/02/14 09:20:04;;;;;;;1.98;1.20;;;9.20;43.80;;;;;;5073230;28;20041;-86
2022/02/14 09:22:30;;;;;;;2.83;0.98;;;9.50;43.10;;;;;;5071865;28;20083;-85
2022/02/14 09:24:57;;;;;;;2.70;1.25;;;9.60;42.70;;;;;;5066758;28;20065;-86
2022/02/14 09:27:23;;;;;;;2.03;1.15;;;9.80;42.60;;;;;;5069995;28;20008;-86
2022/02/14 09:29:49;;;;;;;2.03;1.20;;;10.20;42.00;;;;;;5071126;28;20032;-87
2022/02/14 09:32:20;;;;;;;2.17;1.17;;;10.30;41.30;;;;;;5060678;28;20085;-86
2022/02/14 09:34:46;;;;;;;6.90;1.38;;;10.50;40.70;;;;;;5041601;28;20101;-84
2022/02/14 09:37:11;;;;;;;2.03;1.00;;;10.40;39.90;;;;;;5042717;28;20021;-88
2022/02/14 09:39:37;;;;;;;3.25;1.10;;;10.20;40.00;;;;;;5040224;28;20029;-87
2022/02/14 09:42:05;;;;;;;1.92;1.30;;;10.20;40.30;;;;;;5037141;28;20034;-88
2022/02/14 09:44:32;;;;;;;2.35;1.15;;;10.50;40.20;;;;;;5037348;28;20075;-85
2022/02/14 09:46:58;;;;;;;2.58;1.15;;;10.80;40.00;;;;;;5035907;28;20029;-86
2022/02/14 09:49:25;;;;;;;1.45;1.13;;;11.10;39.40;;;;;;5036970;28;20469;-86
2022/02/14 09:51:53;;;;;;;2.70;0.93;;;11.30;38.80;;;;;;5036766;28;20058;-87
2022/02/14 09:54:20;;;;;;;2.28;1.05;;;12.00;38.20;;;;;;5046874;28;20021;-85
2022/02/14 09:56:47;;;;;;;1.08;0.73;;;12.60;37.60;;;;;;5070503;28;20037;-84
2022/02/14 09:59:14;;;;;;;1.52;0.90;;;13.20;37.00;;;;;;5075022;28;20052;-84
2022/02/14 10:01:40;;;;;;;1.77;1.08;;;;;;;;;;5074941;28;20097;-84
2022/02/14 10:04:07;;;;;;;2.75;1.63;;;14.10;34.70;;;;;;5074441;28;20072;-87
2022/02/14 10:06:40;;;;;;;3.90;1.27;;;13.90;34.60;;;;;;5073656;28;20040;-85
2022/02/14 10:09:09;;;;;;;4.72;1.30;;;13.40;34.70;;;;;;5073324;28;20032;-86
2022/02/14 10:11:37;;;;;;;3.50;1.60;;;12.70;35.30;;;;;;5059052;28;20044;-86
2022/02/14 10:14:17;;;;;;;2.55;1.25;;;12.70;36.30;;;;;;5039660;28;20063;-87
2022/02/14 10:17:03;;;;;;;3.30;1.40;;;12.80;36.10;;;;;;5046996;28;20036;-88
2022/02/14 10:19:30;;;;;;;2.60;1.30;;;12.90;36.00;;;;;;5054992;28;20192;-84
2022/02/14 10:21:57;;;;;;;1.38;0.90;;;12.80;36.20;;;;;;5064310;28;20006;-84
2022/02/14 10:24:24;;;;;;;1.20;0.80;;;13.10;36.10;;;;;;5051663;28;20237;-86
2022/02/14 10:26:52;;;;;;;1.13;0.95;;;13.20;35.90;;;;;;5057601;28;20029;-86
2022/02/14 10:29:27;;;;;;;2.03;1.45;;;13.20;36.10;;;;;;5056457;28;20021;-87
2022/02/14 10:31:58;;;;;;;5.75;1.30;;;13.00;36.20;;;;;;5061905;28;20037;-87
2022/02/14 10:34:39;;;;;;;2.95;1.85;;;13.00;36.60;;;;;;5061768;28;20021;-86
2022/02/14 10:37:14;;;;;;;5.50;1.75;;;12.70;36.20;;;;;;5065554;28;20073;-85
2022/02/14 10:39:41;;;;;;;5.45;1.60;;;12.50;36.70;;;;;;5069110;28;20025;-84
2022/02/14 10:42:18;;;;;;;3.97;1.55;;;12.50;37.00;;;;;;5073870;28;20028;-84
2022/02/14 10:47:46;;;;;;;3.53;1.10;;;12.70;37.20;;;;;;5056968;28;20028;-88
2022/02/14 10:51:00;;;;;;;1.70;1.23;;;12.80;37.00;;;;;;5061364;28;20025;-89
2022/02/14 10:53:27;;;;;;;1.83;0.88;;;13.00;36.90;;;;;;5072686;28;20016;-84
2022/02/14 10:55:58;;;;;;;2.13;1.35;;;13.20;36.70;;;;;;5064072;28;20021;-87
2022/02/14 10:58:32;;;;;;;1.67;1.10;;;13.30;36.30;;;;;;5053591;28;20017;-88
2022/02/14 11:01:04;;;;;;;2.08;0.90;;;13.20;36.40;;;;;;5070718;28;20029;-87
2022/02/14 11:03:30;;;;;;;2.88;1.02;;;13.20;36.50;;;;;;5065649;28;20435;-87
2022/02/14 11:06:02;;;;;;;3.95;1.83;;;13.10;36.70;;;;;;5059405;28;20282;-86
2022/02/14 11:08:32;;;;;;;2.50;1.08;;;12.90;36.70;;;;;;5061957;28;20048;-85
2022/02/14 11:11:02;;;;;;;1.85;1.02;;;12.80;36.90;;;;;;5055838;28;20088;-86
2022/02/14 11:13:32;;;;;;;2.97;1.65;;;12.70;36.90;;;;;;5051229;28;20061;-86
2022/02/14 11:16:21;;;;;;;2.03;1.20;;;12.50;36.80;;;;;;5059019;28;20021;-86
2022/02/14 11:18:50;;;;;;;1.80;1.20;;;12.20;37.20;;;;;;5056954;28;20037;-87
2022/02/14 11:21:16;;;;;;;2.63;1.30;;;12.20;37.90;;;;;;5063007;28;20017;-87
2022/02/14 11:23:50;;;;;;;1.30;1.20;;;12.40;38.10;;;;;;5066325;28;20064;-86
2022/02/14 11:26:40;;;;;;;2.47;1.17;;;12.70;38.10;;;;;;5060150;28;20092;-88
2022/02/14 11:29:24;;;;;;;1.08;0.95;;;12.90;37.60;;;;;;5059091;28;20335;-86
2022/02/14 11:35:06;;;;;;;1.40;0.70;;;13.20;37.00;;;;;;5037544;28;20039;-87
2022/02/14 11:37:56;;;;;;;1.15;0.70;;;13.30;36.80;;;;;;5060257;28;20047;-88
2022/02/14 11:40:26;;;;;;;2.42;0.90;;;13.40;36.50;;;;;;5062495;28;20071;-88
2022/02/14 11:43:49;;;;;;;1.80;1.00;;;13.50;36.30;;;;;;5063284;28;20060;-87
2022/02/14 11:46:42;;;;;;;1.27;0.80;;;13.60;36.00;;;;;;4975566;28;20106;-86
2022/02/14 11:49:38;;;;;;;2.92;1.20;;;13.60;36.00;;;;;;5013150;28;20053;-89
2022/02/14 11:52:39;;;;;;;3.47;1.10;;;13.60;35.90;;;;;;4972477;28;20046;-87
2022/02/14 11:55:08;;;;;;;2.10;0.90;;;13.50;35.80;;;;;;5007751;28;20034;-87
2022/02/14 11:57:35;;;;;;;6.15;1.00;;;13.50;35.80;;;;;;5013413;28;20405;-87
2022/02/14 12:00:13;;;;;;;2.65;1.30;;;13.50;35.90;;;;;;5018071;28;20271;-87
2022/02/14 12:02:42;;;;;;;3.58;1.63;;;13.70;35.70;;;;;;5057574;28;20024;-86
2022/02/14 12:05:08;;;;;;;3.22;1.70;;;13.60;35.50;;;;;;5050881;28;20018;-85
2022/02/14 12:07:39;;;;;;;5.28;1.27;;;13.50;35.60;;;;;;5059066;28;20036;-87
2022/02/14 12:10:17;;;;;;;3.33;0.93;;;13.50;36.00;;;;;;5052262;28;20347;-86
2022/02/14 12:12:45;;;;;;;2.72;1.17;;;13.50;36.20;;;;;;5059328;28;20076;-86
2022/02/14 12:21:23;;;;;;;3.15;1.30;;;14.00;35.60;;;;;;5052526;28;20071;-86
2022/02/14 12:23:57;;;;;;;4.43;1.55;;;14.00;35.50;;;;;;5057074;28;20390;-87
2022/02/14 12:26:28;;;;;;;3.30;1.27;;;14.00;35.50;;;;;;5037715;28;20083;-87
2022/02/14 12:31:58;;;;;;;5.00;1.50;;;14.10;35.30;;;;;;5059249;28;20044;-86
2022/02/14 12:34:45;;;;;;;2.97;1.60;;;14.20;35.00;;;;;;5055609;28;20010;-86
2022/02/14 12:37:39;;;;;;;2.00;1.08;;;14.20;35.30;;;;;;5057787;28;20017;-85
2022/02/14 12:40:05;;;;;;;2.35;1.17;;;14.60;35.40;;;;;;5050060;28;20024;-85
2022/02/14 12:42:32;;;;;;;0.95;0.68;;;14.80;35.00;;;;;;5057666;28;20021;-86
2022/02/14 12:44:58;;;;;;;1.88;1.30;;;14.90;35.00;;;;;;5051377;28;20021;-86
2022/02/14 12:47:27;;;;;;;1.08;0.80;;;15.20;34.80;;;;;;5055578;28;20032;-86
2022/02/14 12:50:17;;;;;;;3.58;1.58;;;15.50;34.10;;;;;;5065932;28;20025;-86
2022/02/14 12:52:47;;;;;;;6.07;1.35;;;15.50;33.70;;;;;;5066975;28;20029;-86
2022/02/14 12:55:23;;;;;;;3.80;2.22;;;15.40;33.40;;;;;;5055270;28;20037;-87
2022/02/14 12:57:56;;;;;;;3.67;1.25;;;15.30;34.20;;;;;;5053943;28;20037;-85
2022/02/14 13:00:38;;;;;;;3.13;1.33;;;14.90;34.40;;;;;;5027664;28;20037;-86
2022/02/14 13:03:12;;;;;;;1.63;1.00;;;14.60;35.00;;;;;;5042177;28;20021;-86
2022/02/14 13:05:42;;;;;;;1.38;1.02;;;14.40;35.30;;;;;;5058633;28;20017;-86
2022/02/14 13:08:25;;;;;;;6.40;1.85;;;14.50;35.70;;;;;;5057921;28;20017;-86
2022/02/14 13:10:52;;;;;;;3.22;1.70;;;14.50;37.60;;;;;;5056499;28;20343;-87
2022/02/14 13:13:29;;;;;;;6.47;1.75;;;14.40;38.90;;;;;;5057333;28;20036;-87
2022/02/14 13:16:00;;;;;;;3.10;1.30;;;14.30;40.20;;;;;;5069367;28;20032;-84